Time;durP1;ratioP1;P1;durP2;ratioP2;P2;SDS_P1;SDS_P2;PMS_P1;PMS_P2;Temp;Humidity;BMP_temperature;BMP_pressure;BME280_temperature;BME280_humidity;BME280_pressure;Samples;Min_cycle;Max_cycle;Signal;HPM_P1;HPM_P2
2023/09/23 00:01:39;;;;;;;6.10;2.10;;;;;;;14.68;100.00;99066.16;109312;1252;72404;-67
2023/09/23 00:04:26;;;;;;;8.20;2.40;;;;;;;14.69;100.00;99064.94;109467;1253;59408;-62
2023/09/23 00:07:12;;;;;;;6.60;2.10;;;;;;;14.67;100.00;99058.38;109539;1255;57717;-64
2023/09/23 00:09:58;;;;;;;5.80;2.00;;;;;;;14.63;100.00;99051.67;109480;1254;73065;-63
2023/09/23 00:12:45;;;;;;;7.80;2.00;;;;;;;14.64;100.00;99050.86;109561;1252;66281;-65
2023/09/23 00:15:36;;;;;;;5.80;1.70;;;;;;;14.65;100.00;99050.63;109486;1252;72424;-64
2023/09/23 00:18:23;;;;;;;6.20;2.10;;;;;;;14.67;100.00;99051.33;109383;1253;57304;-65
2023/09/23 00:21:12;;;;;;;6.70;2.20;;;;;;;14.67;100.00;99055.61;109390;1254;59010;-64
2023/09/23 00:24:01;;;;;;;6.70;2.40;;;;;;;14.67;100.00;99054.88;109284;1253;71742;-62
2023/09/23 00:26:50;;;;;;;5.70;1.90;;;;;;;14.68;100.00;99062.05;109570;1254;67838;-64
2023/09/23 00:29:38;;;;;;;6.30;2.20;;;;;;;14.66;100.00;99065.66;109543;1253;71218;-63
2023/09/23 00:32:25;;;;;;;5.80;1.90;;;;;;;14.61;100.00;99071.13;109378;1253;59821;-64
2023/09/23 00:35:12;;;;;;;7.80;2.20;;;;;;;14.60;100.00;99071.14;109261;1254;60161;-63
2023/09/23 00:37:58;;;;;;;6.00;2.10;;;;;;;14.61;100.00;99063.86;109385;1254;71599;-64
2023/09/23 00:40:45;;;;;;;5.60;1.90;;;;;;;14.60;100.00;99066.77;109414;1253;66493;-64
2023/09/23 00:43:33;;;;;;;6.50;1.90;;;;;;;14.60;100.00;99069.98;109392;1253;71171;-62
2023/09/23 00:46:23;;;;;;;7.30;2.20;;;;;;;14.61;100.00;99068.34;109406;1253;59645;-63
2023/09/23 00:49:12;;;;;;;6.30;2.20;;;;;;;14.62;100.00;99071.80;109409;1253;61447;-64
2023/09/23 00:52:02;;;;;;;6.80;2.30;;;;;;;14.60;100.00;99068.04;109382;1254;71650;-64
2023/09/23 00:54:49;;;;;;;8.60;2.10;;;;;;;14.60;100.00;99074.13;109535;1253;67819;-63
2023/09/23 00:57:37;;;;;;;6.20;2.00;;;;;;;14.58;100.00;99076.71;109360;1253;72508;-63
2023/09/23 01:00:27;;;;;;;7.00;2.20;;;;;;;14.54;100.00;99082.30;109381;1253;58411;-64
2023/09/23 01:03:16;;;;;;;8.20;2.00;;;;;;;14.49;100.00;99085.15;109537;1253;59612;-63
2023/09/23 01:06:06;;;;;;;6.40;2.20;;;;;;;14.44;100.00;99077.69;109387;1253;73107;-65
2023/09/23 01:08:54;;;;;;;5.80;2.00;;;;;;;14.39;100.00;99078.57;109462;1254;67724;-64
2023/09/23 01:11:41;;;;;;;6.70;2.20;;;;;;;14.33;100.00;99088.51;109360;1253;72737;-63
2023/09/23 01:14:27;;;;;;;7.70;2.10;;;;;;;14.27;100.00;99090.17;109264;1254;59487;-63
2023/09/23 01:17:15;;;;;;;6.50;2.20;;;;;;;14.24;100.00;99088.63;109509;1254;60021;-64
2023/09/23 01:20:12;;;;;;;6.40;2.30;;;;;;;14.20;100.00;99085.95;109545;1253;74041;-64
2023/09/23 01:22:58;;;;;;;6.20;2.20;;;;;;;14.20;100.00;99086.02;109401;1253;67794;-65
2023/09/23 01:25:44;;;;;;;6.00;2.10;;;;;;;14.20;100.00;99085.79;109401;1254;73745;-64
2023/09/23 01:28:33;;;;;;;7.50;2.30;;;;;;;14.20;100.00;99081.75;109221;1254;59291;-63
2023/09/23 01:31:21;;;;;;;6.60;2.40;;;;;;;14.20;100.00;99082.45;109519;1253;60812;-63
2023/09/23 01:34:09;;;;;;;6.30;2.10;;;;;;;14.16;100.00;99084.85;109529;1254;71438;-62
2023/09/23 01:36:56;;;;;;;6.20;2.10;;;;;;;14.13;100.00;99081.95;109401;1254;68336;-65
2023/09/23 01:39:42;;;;;;;6.10;2.00;;;;;;;14.10;100.00;99079.19;109235;1253;72964;-66
2023/09/23 01:42:30;;;;;;;6.50;2.40;;;;;;;14.07;100.00;99086.45;109416;1253;60404;-63
2023/09/23 01:45:19;;;;;;;6.70;2.50;;;;;;;14.06;100.00;99089.83;109435;1253;58823;-63
2023/09/23 01:48:05;;;;;;;7.50;2.30;;;;;;;14.05;100.00;99095.58;109403;1252;73184;-64
2023/09/23 01:50:53;;;;;;;8.60;2.80;;;;;;;14.03;100.00;99092.63;109428;1253;68596;-63
2023/09/23 01:53:39;;;;;;;6.50;2.40;;;;;;;14.00;100.00;99087.59;109523;1254;72806;-63
2023/09/23 01:56:26;;;;;;;7.70;3.00;;;;;;;13.98;100.00;99081.93;109338;1253;59400;-64
2023/09/23 01:59:12;;;;;;;6.80;2.50;;;;;;;13.99;100.00;99078.81;109417;1254;60099;-63
2023/09/23 02:01:59;;;;;;;7.30;2.70;;;;;;;13.99;100.00;99077.59;109337;1253;73000;-64
2023/09/23 02:04:47;;;;;;;6.40;2.20;;;;;;;13.98;100.00;99085.80;109436;1253;66487;-63
2023/09/23 02:07:33;;;;;;;7.90;2.90;;;;;;;13.95;100.00;99096.17;109353;1253;72457;-65
2023/09/23 02:10:23;;;;;;;6.40;2.30;;;;;;;13.94;100.00;99089.45;109551;1252;58280;-65
2023/09/23 02:13:09;;;;;;;8.60;3.10;;;;;;;13.94;100.00;99078.20;109451;1252;60058;-64
2023/09/23 02:15:57;;;;;;;7.30;3.20;;;;;;;13.96;100.00;99077.31;109467;1253;71537;-64
2023/09/23 02:18:50;;;;;;;7.90;3.00;;;;;;;13.98;100.00;99071.63;109475;1252;66616;-65
2023/09/23 02:21:36;;;;;;;8.60;2.60;;;;;;;14.00;100.00;99067.66;109736;1253;72494;-65
2023/09/23 02:24:23;;;;;;;7.40;3.00;;;;;;;14.02;100.00;99063.83;109417;1255;59437;-63
2023/09/23 02:27:10;;;;;;;6.90;3.00;;;;;;;14.05;100.00;99063.77;109476;1254;59158;-66
2023/09/23 02:29:57;;;;;;;6.80;3.00;;;;;;;14.05;100.00;99061.17;109567;1254;72880;-66
2023/09/23 02:32:46;;;;;;;7.50;3.10;;;;;;;14.07;100.00;99069.40;109584;1253;66677;-66
2023/09/23 02:35:34;;;;;;;7.40;3.10;;;;;;;14.08;100.00;99077.08;109459;1252;73451;-65
2023/09/23 02:38:21;;;;;;;11.90;3.10;;;;;;;14.07;100.00;99083.09;109449;1253;58217;-65
2023/09/23 02:41:08;;;;;;;7.20;3.00;;;;;;;14.05;100.00;99081.88;109509;1254;60149;-68
2023/09/23 02:43:55;;;;;;;8.90;3.00;;;;;;;14.05;100.00;99082.44;109572;1252;72726;-66
2023/09/23 02:46:42;;;;;;;8.40;3.00;;;;;;;14.04;100.00;99071.80;109435;1252;68946;-64
2023/09/23 02:49:28;;;;;;;7.30;2.80;;;;;;;14.05;100.00;99077.73;109506;1252;72504;-65
2023/09/23 02:52:15;;;;;;;7.60;3.20;;;;;;;14.06;100.00;99085.88;109495;1253;60562;-65
2023/09/23 02:55:01;;;;;;;7.10;3.10;;;;;;;14.06;100.00;99079.70;109566;1252;59537;-65
2023/09/23 02:57:49;;;;;;;8.10;3.30;;;;;;;14.05;100.00;99068.54;109438;1252;73070;-65
2023/09/23 03:00:36;;;;;;;7.90;3.30;;;;;;;14.07;100.00;99061.73;109441;1253;67907;-64
2023/09/23 03:03:24;;;;;;;8.00;3.10;;;;;;;14.07;100.00;99065.79;109542;1252;72504;-67
2023/09/23 03:06:10;;;;;;;7.50;3.20;;;;;;;14.07;100.00;99058.66;109506;1252;60631;-63
2023/09/23 03:08:58;;;;;;;7.80;3.10;;;;;;;14.09;100.00;99058.41;109583;1253;59054;-65
2023/09/23 03:11:49;;;;;;;8.10;3.40;;;;;;;14.11;100.00;99055.43;109515;1252;71491;-68
2023/09/23 03:14:42;;;;;;;7.80;3.10;;;;;;;14.14;100.00;99050.98;109446;1253;68642;-65
2023/09/23 03:17:31;;;;;;;7.30;3.20;;;;;;;14.16;100.00;99040.23;109505;1252;71340;-65
2023/09/23 03:20:21;;;;;;;7.10;2.80;;;;;;;14.18;100.00;99042.48;109396;1253;60621;-67
2023/09/23 03:23:09;;;;;;;8.20;3.20;;;;;;;14.19;100.00;99049.67;109308;1254;59918;-66
2023/09/23 03:25:56;;;;;;;9.30;3.80;;;;;;;14.21;100.00;99049.54;109503;1252;73916;-66
2023/09/23 03:28:42;;;;;;;9.00;3.20;;;;;;;14.23;100.00;99048.40;109535;1252;67907;-64
2023/09/23 03:31:28;;;;;;;9.60;3.30;;;;;;;14.25;100.00;99052.45;109485;1252;72619;-65
2023/09/23 03:34:16;;;;;;;7.00;3.00;;;;;;;14.26;100.00;99059.14;109444;1253;59632;-64
2023/09/23 03:37:03;;;;;;;6.90;2.90;;;;;;;14.26;100.00;99073.58;109493;1253;58753;-64
2023/09/23 03:39:58;;;;;;;8.50;3.30;;;;;;;14.21;100.00;99061.21;109420;1252;71681;-64
2023/09/23 03:42:45;;;;;;;8.00;3.20;;;;;;;14.22;100.00;99068.84;109537;1252;68024;-64
2023/09/23 03:45:35;;;;;;;8.20;3.00;;;;;;;14.22;100.00;99077.05;109505;1252;71204;-65
2023/09/23 03:48:22;;;;;;;8.10;3.30;;;;;;;14.21;100.00;99071.98;109510;1252;58158;-64
2023/09/23 03:51:09;;;;;;;9.30;3.10;;;;;;;14.19;100.00;99076.80;109484;1252;60296;-63
2023/09/23 03:53:56;;;;;;;7.70;3.30;;;;;;;14.22;100.00;99089.70;109412;1252;72005;-63
2023/09/23 03:56:42;;;;;;;7.10;2.80;;;;;;;14.18;100.00;99089.54;109528;1252;68692;-64
2023/09/23 03:59:30;;;;;;;7.80;3.40;;;;;;;14.14;100.00;99089.50;109493;1252;71269;-66
2023/09/23 04:02:16;;;;;;;8.00;3.80;;;;;;;14.10;100.00;99088.45;109391;1252;57301;-66
2023/09/23 04:05:05;;;;;;;7.70;3.30;;;;;;;14.06;100.00;99091.60;109481;1253;60149;-66
2023/09/23 04:07:52;;;;;;;8.00;3.30;;;;;;;14.00;100.00;99090.46;109494;1252;71832;-65
2023/09/23 04:10:39;;;;;;;8.00;3.40;;;;;;;13.97;100.00;99086.53;109337;1252;68893;-65
2023/09/23 04:13:26;;;;;;;7.00;2.90;;;;;;;13.94;100.00;99092.11;109444;1252;72538;-68
2023/09/23 04:16:12;;;;;;;7.50;3.20;;;;;;;13.91;100.00;99096.23;109503;1252;59378;-67
2023/09/23 04:18:58;;;;;;;7.50;3.40;;;;;;;13.90;100.00;99092.45;109462;1252;61194;-69
2023/09/23 04:21:44;;;;;;;7.60;3.40;;;;;;;13.89;100.00;99091.27;109529;1252;71475;-68
2023/09/23 04:24:31;;;;;;;9.20;3.60;;;;;;;13.90;100.00;99087.40;109489;1252;67716;-70
2023/09/23 04:27:17;;;;;;;8.70;3.10;;;;;;;13.90;100.00;99093.35;109487;1252;71539;-67
2023/09/23 04:30:15;;;;;;;6.80;3.20;;;;;;;13.92;100.00;99094.98;109511;1252;59471;-68
2023/09/23 04:33:02;;;;;;;7.30;3.20;;;;;;;13.93;100.00;99099.91;109521;1252;60664;-68
2023/09/23 04:35:49;;;;;;;6.90;3.00;;;;;;;13.93;100.00;99100.80;109473;1252;72761;-66
2023/09/23 04:38:36;;;;;;;7.40;3.30;;;;;;;13.91;100.00;99101.40;109290;1252;219580;-67
2023/09/23 04:41:22;;;;;;;8.40;3.90;;;;;;;13.96;100.00;99110.64;109422;1253;72453;-68
2023/09/23 04:44:09;;;;;;;8.10;3.20;;;;;;;13.99;100.00;99117.91;109455;1253;60802;-68
2023/09/23 04:46:55;;;;;;;7.40;3.40;;;;;;;13.97;100.00;99121.80;109482;1252;60130;-67
2023/09/23 04:49:43;;;;;;;7.20;3.30;;;;;;;14.02;100.00;99133.42;109490;1252;73534;-68
2023/09/23 04:52:32;;;;;;;8.60;4.10;;;;;;;14.03;100.00;99136.73;109388;1252;66746;-70
2023/09/23 04:55:19;;;;;;;7.30;3.20;;;;;;;14.03;100.00;99137.73;109334;1252;72562;-69
2023/09/23 04:58:06;;;;;;;8.10;3.60;;;;;;;14.05;100.00;99160.23;109489;1252;59244;-67
2023/09/23 05:00:52;;;;;;;7.10;3.00;;;;;;;14.07;100.00;99173.16;109462;1252;60057;-66
2023/09/23 05:03:38;;;;;;;7.80;3.10;;;;;;;14.03;100.00;99166.94;109512;1252;74029;-67
2023/09/23 05:06:25;;;;;;;7.50;3.50;;;;;;;14.06;100.00;99168.05;109417;1252;68913;-69
2023/09/23 05:09:11;;;;;;;7.90;3.40;;;;;;;14.08;100.00;99161.99;109488;1252;72540;-69
2023/09/23 05:11:58;;;;;;;7.20;3.30;;;;;;;14.09;100.00;99163.63;109391;1253;58955;-66
2023/09/23 05:14:44;;;;;;;7.10;3.30;;;;;;;14.09;100.00;99157.41;109491;1252;59594;-69
2023/09/23 05:17:31;;;;;;;7.30;3.30;;;;;;;14.08;100.00;99150.19;109372;1252;71857;-65
2023/09/23 05:20:25;;;;;;;7.70;3.40;;;;;;;14.10;100.00;99155.89;109449;1252;69042;-65
2023/09/23 05:23:11;;;;;;;8.20;3.70;;;;;;;14.11;100.00;99161.96;109495;1252;73603;-66
2023/09/23 05:25:58;;;;;;;8.50;4.00;;;;;;;14.17;100.00;99159.77;109441;1252;59558;-67
2023/09/23 05:28:45;;;;;;;10.40;4.80;;;;;;;14.23;100.00;99153.23;109537;1252;60218;-67
2023/09/23 05:31:32;;;;;;;9.00;4.50;;;;;;;14.31;100.00;99151.20;109555;1252;74022;-66
2023/09/23 05:34:19;;;;;;;9.80;4.50;;;;;;;14.36;100.00;99162.23;109467;1252;67322;-64
2023/09/23 05:37:12;;;;;;;8.30;4.00;;;;;;;14.40;100.00;99165.55;109487;1252;73781;-67
2023/09/23 05:40:00;;;;;;;9.30;3.50;;;;;;;14.44;100.00;99170.14;109457;1252;59002;-65
2023/09/23 05:42:47;;;;;;;7.70;3.60;;;;;;;14.47;100.00;99174.59;109527;1252;61488;-65
2023/09/23 05:45:35;;;;;;;8.60;3.70;;;;;;;14.49;100.00;99185.27;109250;1252;71736;-66
2023/09/23 05:48:21;;;;;;;7.80;3.90;;;;;;;14.51;100.00;99193.29;109496;1252;67254;-64
2023/09/23 05:51:08;;;;;;;7.90;3.60;;;;;;;14.51;100.00;99202.75;109474;1252;71476;-68
2023/09/23 05:53:55;;;;;;;9.00;4.00;;;;;;;14.54;100.00;99211.71;109467;1252;60603;-66
2023/09/23 05:56:41;;;;;;;8.00;3.40;;;;;;;14.61;100.00;99221.29;109508;1252;58682;-68
2023/09/23 05:59:28;;;;;;;7.40;3.20;;;;;;;14.69;100.00;99228.70;109528;1252;73027;-68
2023/09/23 06:02:14;;;;;;;8.60;3.50;;;;;;;14.73;100.00;99227.38;109481;1252;66567;-67
2023/09/23 06:05:01;;;;;;;8.70;3.70;;;;;;;14.77;100.00;99244.45;109488;1252;73654;-68
2023/09/23 06:07:48;;;;;;;7.70;3.50;;;;;;;14.80;100.00;99248.14;109242;1252;60598;-67
2023/09/23 06:10:35;;;;;;;8.20;3.90;;;;;;;14.86;100.00;99241.29;109513;1252;61228;-66
2023/09/23 06:13:24;;;;;;;7.80;4.20;;;;;;;14.92;100.00;99245.85;109465;1252;72877;-70
2023/09/23 06:16:10;;;;;;;8.70;4.60;;;;;;;14.95;100.00;99238.53;109358;1252;66756;-67
2023/09/23 06:18:56;;;;;;;7.80;3.80;;;;;;;15.00;100.00;99229.97;109284;1252;71424;-67
2023/09/23 06:21:43;;;;;;;7.80;3.60;;;;;;;15.04;100.00;99230.77;109405;1252;60693;-68
2023/09/23 06:24:30;;;;;;;8.60;3.80;;;;;;;15.11;100.00;99243.05;109437;1252;58899;-69
2023/09/23 06:27:16;;;;;;;8.20;3.90;;;;;;;15.19;100.00;99240.90;109476;1252;74246;-67
2023/09/23 06:30:05;;;;;;;8.60;3.80;;;;;;;15.31;100.00;99238.71;109393;1253;68889;-65
2023/09/23 06:32:51;;;;;;;8.80;4.30;;;;;;;15.45;100.00;99228.40;109251;1253;71395;-66
2023/09/23 06:35:39;;;;;;;10.10;4.00;;;;;;;15.73;100.00;99231.90;109459;1252;58427;-66
2023/09/23 06:38:26;;;;;;;8.20;3.90;;;;;;;16.03;99.43;99224.80;109447;1252;61343;-66
2023/09/23 06:41:12;;;;;;;8.30;4.10;;;;;;;16.27;96.82;99217.60;109413;1252;74419;-66
2023/09/23 06:43:59;;;;;;;8.30;4.40;;;;;;;16.48;96.78;99213.60;109496;1252;66645;-66
2023/09/23 06:46:45;;;;;;;6.80;3.20;;;;;;;16.80;95.83;99211.95;109521;1252;71090;-69
2023/09/23 06:49:32;;;;;;;8.10;3.90;;;;;;;17.01;92.53;99212.27;109504;1252;58324;-69
2023/09/23 06:52:18;;;;;;;7.40;3.50;;;;;;;17.52;91.22;99225.33;109468;1252;59078;-66
2023/09/23 06:55:05;;;;;;;6.90;3.60;;;;;;;19.07;87.82;99230.05;109221;1252;74083;-67
2023/09/23 06:57:51;;;;;;;7.60;3.30;;;;;;;20.52;80.85;99226.32;109438;1252;67654;-67
2023/09/23 07:00:37;;;;;;;8.40;3.20;;;;;;;22.01;72.39;99223.16;109477;1252;72856;-68
2023/09/23 07:03:24;;;;;;;7.80;3.40;;;;;;;23.31;70.38;99223.10;109384;1253;58113;-70
2023/09/23 07:06:11;;;;;;;7.50;3.20;;;;;;;24.58;63.56;99225.67;109495;1252;59622;-66
2023/09/23 07:08:57;;;;;;;7.00;2.90;;;;;;;25.53;57.45;99220.02;109531;1252;71572;-67
2023/09/23 07:11:43;;;;;;;7.30;2.80;;;;;;;26.02;53.95;99220.59;109493;1252;66460;-69
2023/09/23 07:14:32;;;;;;;6.20;2.50;;;;;;;26.50;53.79;99228.85;109487;1253;72357;-67
2023/09/23 07:17:19;;;;;;;7.00;2.70;;;;;;;27.01;52.38;99239.48;109347;1252;58423;-67
2023/09/23 07:20:06;;;;;;;6.30;2.70;;;;;;;27.15;49.38;99235.61;109533;1252;58843;-68
2023/09/23 07:22:53;;;;;;;7.50;2.30;;;;;;;27.25;48.75;99251.20;109535;1252;72894;-67
2023/09/23 07:25:42;;;;;;;6.90;2.50;;;;;;;27.04;47.75;99256.30;109471;1253;67669;-67
2023/09/23 07:28:28;;;;;;;5.90;2.40;;;;;;;26.94;48.68;99262.00;109530;1252;72629;-67
2023/09/23 07:31:14;;;;;;;6.50;2.30;;;;;;;26.96;49.00;99267.11;109488;1252;57403;-65
2023/09/23 07:34:01;;;;;;;7.10;2.50;;;;;;;26.51;50.10;99265.25;109495;1252;61274;-68
2023/09/23 07:36:47;;;;;;;6.20;2.50;;;;;;;26.53;49.67;99265.39;109481;1252;73963;-68
2023/09/23 07:39:33;;;;;;;6.00;2.30;;;;;;;26.27;48.89;99267.50;109475;1252;67158;-69
2023/09/23 07:42:19;;;;;;;7.40;2.60;;;;;;;25.61;50.50;99274.95;109356;1252;73799;-67
2023/09/23 07:45:08;;;;;;;5.80;2.40;;;;;;;25.42;50.98;99279.54;109337;1253;58917;-66
2023/09/23 07:47:57;;;;;;;6.60;2.70;;;;;;;25.99;50.66;99276.98;109594;1252;61122;-69
2023/09/23 07:50:44;;;;;;;6.30;2.70;;;;;;;26.72;48.44;99273.61;109523;1252;73858;-67
2023/09/23 07:53:30;;;;;;;6.80;2.80;;;;;;;27.43;47.67;99263.86;109525;1252;68595;-66
2023/09/23 07:56:17;;;;;;;6.30;2.30;;;;;;;27.99;46.43;99256.53;109358;1253;72411;-67
2023/09/23 07:59:03;;;;;;;6.40;2.30;;;;;;;28.03;44.02;99252.91;109472;1252;57970;-69
2023/09/23 08:01:50;;;;;;;5.90;1.90;;;;;;;28.06;43.64;99251.53;109527;1252;60155;-66
2023/09/23 08:04:37;;;;;;;5.70;1.90;;;;;;;27.74;44.00;99263.66;109489;1253;73909;-67
2023/09/23 08:07:23;;;;;;;5.40;1.70;;;;;;;27.30;44.85;99257.52;109518;1252;67921;-70
2023/09/23 08:10:10;;;;;;;6.50;1.90;;;;;;;26.78;45.33;99262.42;109489;1252;72546;-67
2023/09/23 08:12:56;;;;;;;6.70;2.10;;;;;;;26.04;47.03;99274.86;109476;1252;57575;-66
2023/09/23 08:15:43;;;;;;;6.10;2.20;;;;;;;25.31;48.91;99282.35;109502;1252;59062;-63
2023/09/23 08:18:29;;;;;;;5.90;2.10;;;;;;;24.16;51.05;99285.17;109536;1252;73065;-66
2023/09/23 08:21:16;;;;;;;6.80;2.30;;;;;;;23.20;53.44;99283.55;109564;1252;67727;-65
2023/09/23 08:24:04;;;;;;;6.90;2.40;;;;;;;22.43;55.26;99289.76;109328;1253;72622;-65
2023/09/23 08:26:50;;;;;;;6.40;2.20;;;;;;;21.90;56.92;99291.39;109259;1253;57480;-64
2023/09/23 08:29:37;;;;;;;6.30;2.20;;;;;;;21.58;58.45;99293.15;109510;1252;59011;-65
2023/09/23 08:32:23;;;;;;;6.40;2.40;;;;;;;21.45;59.30;99297.27;109481;1252;72805;-67
2023/09/23 08:35:10;;;;;;;6.00;2.00;;;;;;;21.24;59.49;99301.17;109515;1252;67555;-64
2023/09/23 08:37:56;;;;;;;5.60;1.80;;;;;;;21.08;60.17;99307.48;109537;1252;72749;-64
2023/09/23 08:40:46;;;;;;;6.00;2.10;;;;;;;21.02;60.28;99315.92;109528;1252;57343;-64
2023/09/23 08:43:38;;;;;;;5.90;2.10;;;;;;;21.25;59.60;99317.61;109354;1252;61240;-69
2023/09/23 08:46:25;;;;;;;6.20;2.20;;;;;;;21.61;58.52;99326.35;109353;1253;72920;-65
2023/09/23 08:49:12;;;;;;;8.10;2.20;;;;;;;22.04;57.78;99341.29;109495;1252;69254;-69
2023/09/23 08:51:59;;;;;;;6.70;2.30;;;;;;;23.00;55.86;99348.66;109320;1252;72210;-67
2023/09/23 08:54:48;;;;;;;6.30;2.20;;;;;;;23.92;53.32;99357.39;109323;1252;57335;-68
2023/09/23 08:57:34;;;;;;;6.60;2.30;;;;;;;24.10;51.82;99356.59;109506;1252;60489;-66
2023/09/23 09:00:21;;;;;;;7.80;2.50;;;;;;;23.31;52.78;99340.05;109352;1252;71839;-70
2023/09/23 09:03:07;;;;;;;5.70;2.60;;;;;;;22.66;53.90;99322.40;109247;1252;67819;-66
2023/09/23 09:05:54;;;;;;;6.30;2.80;;;;;;;22.15;55.65;99313.29;109455;1252;71417;-69
2023/09/23 09:08:42;;;;;;;7.60;3.50;;;;;;;21.73;57.58;99319.45;109426;1255;57413;-69
2023/09/23 09:11:28;;;;;;;7.00;3.40;;;;;;;21.43;58.75;99331.70;109470;1252;58853;-65
2023/09/23 09:14:16;;;;;;;7.70;3.20;;;;;;;21.23;60.11;99326.69;109312;1252;71653;-67
2023/09/23 09:17:09;;;;;;;8.50;3.20;;;;;;;21.16;61.21;99327.30;109511;1252;68113;-66
2023/09/23 09:19:56;;;;;;;7.40;3.40;;;;;;;21.09;61.60;99323.73;109277;1255;73716;-67
2023/09/23 09:22:44;;;;;;;8.90;3.00;;;;;;;21.25;62.15;99325.27;109342;1252;58870;-69
2023/09/23 09:25:31;;;;;;;7.90;3.30;;;;;;;21.36;60.34;99326.04;109251;1252;61362;-67
2023/09/23 09:28:18;;;;;;;7.20;3.20;;;;;;;21.17;60.30;99325.39;109482;1252;70533;-68
2023/09/23 09:31:09;;;;;;;7.30;3.20;;;;;;;21.18;60.84;99318.56;109445;1253;66553;-66
2023/09/23 09:34:02;;;;;;;8.60;3.60;;;;;;;21.36;60.86;99325.73;109330;1252;72477;-71
2023/09/23 09:36:54;;;;;;;7.00;3.30;;;;;;;21.64;60.30;99318.89;109337;1252;57343;-67
2023/09/23 09:39:53;;;;;;;8.20;3.30;;;;;;;21.76;59.21;99317.99;109354;1252;60357;-68
2023/09/23 09:42:57;;;;;;;8.80;3.80;;;;;;;21.74;59.20;99321.83;109263;1253;73795;-69
2023/09/23 09:45:44;;;;;;;8.30;3.80;;;;;;;21.73;59.58;99328.34;109386;1252;67594;-67
2023/09/23 09:48:32;;;;;;;8.10;4.00;;;;;;;21.63;59.95;99322.59;109172;1252;71643;-69
2023/09/23 09:51:21;;;;;;;8.00;3.60;;;;;;;21.95;59.88;99321.87;109250;1253;58981;-69
2023/09/23 09:54:11;;;;;;;7.90;3.20;;;;;;;22.48;58.43;99321.93;109452;1252;61405;-72
2023/09/23 09:57:01;;;;;;;7.80;3.20;;;;;;;23.09;56.55;99327.21;109370;1252;73067;-66
2023/09/23 09:59:50;;;;;;;7.60;3.40;;;;;;;23.39;54.79;99332.56;109501;1253;68278;-68
2023/09/23 10:02:37;;;;;;;7.70;2.90;;;;;;;23.94;53.64;99337.30;109490;1252;71433;-66
2023/09/23 10:05:40;;;;;;;8.00;3.00;;;;;;;24.82;51.02;99342.81;109533;1253;57373;-66
2023/09/23 10:08:35;;;;;;;8.40;4.00;;;;;;;25.77;47.85;99334.66;109279;1253;60001;-66
2023/09/23 10:11:34;;;;;;;6.70;2.60;;;;;;;26.26;45.99;99345.31;109344;1252;73286;-67
2023/09/23 10:14:21;;;;;;;7.90;3.20;;;;;;;26.44;44.61;99352.34;109332;1253;66608;-65
2023/09/23 10:17:07;;;;;;;7.10;2.80;;;;;;;26.76;44.04;99353.82;109317;1252;72082;-66
2023/09/23 10:19:55;;;;;;;6.80;2.80;;;;;;;26.89;44.06;99358.05;109543;1252;58318;-67
2023/09/23 10:22:52;;;;;;;6.70;2.70;;;;;;;27.10;44.42;99357.08;109449;1252;58953;-66
2023/09/23 10:25:43;;;;;;;6.30;2.20;;;;;;;27.02;43.44;99364.69;109187;1253;72957;-67
2023/09/23 10:28:30;;;;;;;6.50;2.50;;;;;;;26.93;44.00;99367.64;109592;1252;67710;-64
2023/09/23 10:31:25;;;;;;;7.30;2.70;;;;;;;27.09;42.89;99368.38;109358;1253;72935;-68
2023/09/23 10:34:12;;;;;;;7.70;2.30;;;;;;;27.20;43.30;99373.21;109332;1253;57837;-65
2023/09/23 10:36:58;;;;;;;7.10;2.10;;;;;;;27.61;42.73;99377.96;109619;1253;59052;-65
2023/09/23 10:39:44;;;;;;;6.60;2.30;;;;;;;28.06;40.93;99374.04;109500;1252;71481;-65
2023/09/23 10:42:34;;;;;;;6.80;2.40;;;;;;;28.13;40.37;99381.95;109509;1252;66993;-65
2023/09/23 10:45:20;;;;;;;5.90;2.10;;;;;;;27.96;40.38;99378.23;109509;1253;71506;-65
2023/09/23 10:48:08;;;;;;;5.70;1.90;;;;;;;27.69;40.61;99383.73;109292;1252;57823;-68
2023/09/23 10:50:55;;;;;;;6.80;2.20;;;;;;;27.46;40.90;99387.41;109320;1253;61107;-66
2023/09/23 10:53:42;;;;;;;6.20;2.00;;;;;;;27.34;41.13;99382.59;109326;1253;74390;-69
2023/09/23 10:56:29;;;;;;;5.80;2.00;;;;;;;27.35;41.60;99385.44;109259;1255;68708;-65
2023/09/23 10:59:16;;;;;;;6.80;2.10;;;;;;;27.05;41.75;99386.42;109179;1255;72350;-65
2023/09/23 11:02:04;;;;;;;6.20;2.50;;;;;;;26.66;42.54;99389.52;109192;1254;58044;-66
2023/09/23 11:04:54;;;;;;;7.40;2.20;;;;;;;26.08;43.16;99386.89;109231;1254;58800;-65
2023/09/23 11:07:42;;;;;;;6.00;2.20;;;;;;;25.68;44.77;99393.55;109232;1254;73835;-69
2023/09/23 11:10:28;;;;;;;7.10;2.40;;;;;;;25.35;45.59;99400.21;109179;1255;67973;-65
2023/09/23 11:13:15;;;;;;;5.70;2.00;;;;;;;25.05;46.53;99398.90;109325;1254;73644;-66
2023/09/23 11:16:09;;;;;;;6.60;2.40;;;;;;;24.42;47.08;99396.27;109207;1254;57352;-68
2023/09/23 11:19:06;;;;;;;6.90;2.10;;;;;;;24.00;48.48;99403.98;109338;1254;61177;-67
2023/09/23 11:21:52;;;;;;;6.00;2.20;;;;;;;23.74;49.03;99407.31;109484;1257;71983;-68
2023/09/23 11:24:55;;;;;;;6.20;2.40;;;;;;;23.32;50.14;99407.90;109467;1254;68646;-67
2023/09/23 11:27:47;;;;;;;6.60;2.50;;;;;;;22.97;51.18;99411.52;109549;1253;72705;-69
2023/09/23 11:30:33;;;;;;;6.80;2.40;;;;;;;22.63;51.92;99409.02;109544;1253;57834;-66
2023/09/23 11:33:24;;;;;;;8.60;3.00;;;;;;;22.45;53.12;99409.48;109493;1253;60149;-66
2023/09/23 11:36:10;;;;;;;7.30;3.10;;;;;;;22.45;53.63;99404.15;109382;1253;72963;-67
2023/09/23 11:38:59;;;;;;;6.60;2.80;;;;;;;22.37;54.07;99409.84;109531;1252;65561;-68
2023/09/23 11:41:46;;;;;;;6.80;2.90;;;;;;;22.37;54.48;99406.52;109292;1253;72464;-67
2023/09/23 11:44:34;;;;;;;6.90;2.50;;;;;;;22.37;54.33;99405.86;109328;1255;58266;-68
2023/09/23 11:47:22;;;;;;;7.30;3.10;;;;;;;22.19;54.27;99401.52;109495;1252;60283;-67
2023/09/23 11:50:09;;;;;;;7.10;2.80;;;;;;;22.22;54.17;99398.09;109283;1252;73136;-69
2023/09/23 11:52:55;;;;;;;8.20;2.90;;;;;;;22.16;54.32;99398.11;109499;1253;67648;-67
2023/09/23 11:55:42;;;;;;;7.90;3.10;;;;;;;22.21;54.82;99396.01;109332;1252;72970;-69
2023/09/23 11:58:28;;;;;;;9.70;3.00;;;;;;;22.37;54.85;99398.59;109418;1254;58796;-68
2023/09/23 12:01:16;;;;;;;7.70;3.20;;;;;;;22.42;54.58;99402.00;109527;1253;59113;-69
2023/09/23 12:04:02;;;;;;;8.20;3.10;;;;;;;22.51;54.86;99404.55;109500;1253;73132;-65
2023/09/23 12:06:48;;;;;;;8.20;3.30;;;;;;;22.60;54.95;99407.02;109306;1253;67818;-66
2023/09/23 12:09:35;;;;;;;7.40;3.30;;;;;;;22.23;54.66;99408.73;109278;1253;72416;-66
2023/09/23 12:12:21;;;;;;;7.20;3.20;;;;;;;21.84;55.81;99407.18;109251;1253;57798;-65
2023/09/23 12:15:08;;;;;;;8.10;3.30;;;;;;;21.75;56.52;99401.14;109472;1253;61317;-66
2023/09/23 12:17:56;;;;;;;8.90;3.70;;;;;;;21.72;56.59;99393.78;109481;1252;72860;-66
2023/09/23 12:20:43;;;;;;;8.00;3.40;;;;;;;21.68;57.24;99397.36;109326;1253;67921;-65
2023/09/23 12:23:30;;;;;;;8.30;3.90;;;;;;;21.38;58.23;99405.70;109450;1253;71637;-67
2023/09/23 12:26:18;;;;;;;8.80;3.80;;;;;;;21.14;59.12;99406.25;109511;1252;57601;-68
2023/09/23 12:29:05;;;;;;;8.80;3.90;;;;;;;21.13;59.97;99399.83;109485;1252;61333;-66
2023/09/23 12:31:51;;;;;;;8.90;3.90;;;;;;;21.02;60.02;99399.65;109509;1253;73105;-66
2023/09/23 12:34:37;;;;;;;8.60;3.80;;;;;;;20.88;60.67;99400.02;109308;1253;68885;-64
2023/09/23 12:37:27;;;;;;;10.50;4.50;;;;;;;20.69;61.27;99397.27;109289;1253;73923;-66
2023/09/23 12:40:13;;;;;;;7.50;4.00;;;;;;;20.61;61.65;99395.10;109470;1253;57829;-66
2023/09/23 12:43:01;;;;;;;8.10;4.00;;;;;;;20.56;62.09;99396.95;109487;1252;58232;-67
2023/09/23 12:45:50;;;;;;;7.80;3.50;;;;;;;20.63;62.12;99401.73;109452;1252;74014;-68
2023/09/23 12:48:36;;;;;;;6.90;3.50;;;;;;;20.72;62.24;99402.70;109474;1252;67665;-66
2023/09/23 12:51:22;;;;;;;8.30;3.50;;;;;;;20.86;61.79;99409.91;109425;1252;73436;-66
2023/09/23 12:54:11;;;;;;;7.90;3.30;;;;;;;20.90;61.40;99408.05;109297;1253;57463;-67
2023/09/23 12:56:57;;;;;;;8.50;3.60;;;;;;;20.82;61.24;99411.35;109534;1253;60139;-66